createdAt,value
2023-04-10T00:00:46.991Z,28.60
2023-04-10T00:05:00.223Z,28.85
2023-04-10T00:09:03.390Z,47.15
2023-04-10T00:13:06.866Z,26.38
2023-04-10T00:17:11.426Z,33.90
2023-04-10T00:21:15.864Z,24.55
2023-04-10T00:25:19.119Z,47.00
2023-04-10T00:29:22.621Z,41.15
2023-04-10T00:33:31.359Z,35.55
2023-04-10T00:37:35.867Z,39.78
2023-04-10T00:41:38.702Z,266.75
2023-04-10T00:45:42.336Z,308.95
2023-04-10T00:49:46.283Z,29.27
2023-04-10T00:53:52.518Z,25.38
2023-04-10T00:57:57.941Z,21.05
2023-04-10T01:02:01.116Z,20.25
2023-04-10T01:06:09.967Z,21.13
2023-04-10T01:10:19.166Z,26.55
2023-04-10T01:14:29.394Z,26.15
2023-04-10T01:18:41.900Z,60.33
2023-04-10T01:23:03.222Z,52.92
2023-04-10T01:27:14.225Z,141.20
2023-04-10T01:31:22.175Z,186.27
2023-04-10T01:35:27.139Z,65.50
2023-04-10T01:39:31.987Z,27.88
2023-04-10T01:43:36.308Z,25.92
2023-04-10T01:47:41.419Z,20.67
2023-04-10T01:51:46.786Z,130.05
2023-04-10T01:55:51.355Z,61.97
2023-04-10T01:59:54.416Z,26.35
2023-04-10T02:03:59.127Z,26.98
2023-04-10T02:08:07.130Z,22.98
2023-04-10T02:12:14.751Z,29.23
2023-04-10T02:16:23.528Z,60.15
2023-04-10T02:20:28.697Z,60.38
2023-04-10T02:24:32.105Z,64.95
2023-04-10T02:28:35.397Z,40.47
2023-04-10T02:32:40.725Z,34.58
2023-04-10T02:36:45.267Z,39.40
2023-04-10T02:40:48.336Z,28.00
2023-04-10T02:44:51.477Z,52.38
2023-04-10T02:48:54.738Z,42.83
2023-04-10T02:52:59.525Z,27.00
2023-04-10T02:57:02.917Z,55.13
2023-04-10T03:05:12.945Z,47.05
2023-04-10T03:09:17.358Z,42.97
2023-04-10T03:13:20.634Z,48.95
2023-04-10T03:17:23.489Z,54.05
2023-04-10T03:21:27.714Z,81.72
2023-04-10T03:25:32.570Z,74.85
2023-04-10T03:29:35.558Z,76.32
2023-04-10T03:33:40.317Z,119.85
2023-04-10T03:37:43.655Z,81.82
2023-04-10T03:41:47.688Z,88.40
2023-04-10T03:45:52.651Z,68.10
2023-04-10T03:49:56.106Z,54.58
2023-04-10T03:53:59.407Z,49.78
2023-04-10T03:58:04.355Z,77.07
2023-04-10T04:02:10.337Z,142.52
2023-04-10T04:06:13.592Z,166.80
2023-04-10T04:10:16.325Z,75.13
2023-04-10T04:14:23.139Z,85.18
2023-04-10T04:18:26.216Z,82.70
2023-04-10T04:22:29.590Z,134.48
2023-04-10T04:30:36.666Z,86.60
2023-04-10T04:34:39.737Z,52.15
2023-04-10T04:38:43.005Z,49.47
2023-04-10T04:42:47.040Z,30.98
2023-04-10T04:46:54.032Z,38.90
2023-04-10T04:50:57.069Z,36.53
2023-04-10T04:54:59.845Z,35.47
2023-04-10T04:59:02.557Z,29.13
2023-04-10T05:03:07.874Z,20.38
2023-04-10T05:07:11.331Z,23.60
2023-04-10T05:11:18.072Z,31.90
2023-04-10T05:15:23.080Z,32.05
2023-04-10T05:19:29.947Z,29.40
2023-04-10T05:23:35.612Z,22.42
2023-04-10T05:27:40.231Z,18.20
2023-04-10T05:31:42.944Z,15.93
2023-04-10T05:35:49.881Z,17.45
2023-04-10T05:39:52.800Z,14.95
2023-04-10T05:43:55.788Z,12.60
2023-04-10T05:48:06.171Z,14.38
2023-04-10T05:52:11.719Z,15.70
2023-04-10T05:56:14.790Z,16.27
2023-04-10T06:00:19.887Z,15.88
2023-04-10T06:04:23.787Z,18.30
2023-04-10T06:08:28.538Z,16.88
2023-04-10T06:12:31.818Z,15.88
2023-04-10T06:16:37.142Z,17.42
2023-04-10T06:20:40.189Z,14.65
2023-04-10T06:24:44.417Z,19.63
2023-04-10T06:28:47.373Z,17.88
2023-04-10T06:32:53.184Z,17.42
2023-04-10T06:36:56.357Z,20.20
2023-04-10T06:41:03.119Z,20.42
2023-04-10T06:45:07.010Z,19.00
2023-04-10T06:49:12.588Z,16.08
2023-04-10T06:53:15.158Z,16.75
2023-04-10T06:57:20.155Z,16.30
2023-04-10T07:01:23.155Z,15.98
2023-04-10T07:05:26.174Z,12.85
2023-04-10T07:09:30.803Z,14.20
2023-04-10T07:13:35.880Z,15.40
2023-04-10T07:17:38.984Z,13.25
2023-04-10T07:21:41.943Z,12.23
2023-04-10T07:25:45.236Z,11.23
2023-04-10T07:29:49.564Z,11.85
2023-04-10T07:33:54.954Z,10.43
2023-04-10T07:37:58.194Z,9.13
2023-04-10T07:42:01.229Z,7.65
2023-04-10T07:46:08.446Z,8.00
2023-04-10T07:50:11.907Z,8.35
2023-04-10T07:54:18.952Z,8.50
2023-04-10T07:58:22.316Z,9.15
2023-04-10T08:02:28.847Z,7.88
2023-04-10T08:06:32.579Z,8.90
2023-04-10T08:10:38.774Z,7.18
2023-04-10T08:14:45.321Z,8.15
2023-04-10T08:18:50.019Z,6.88
2023-04-10T08:23:16.492Z,6.32
2023-04-10T08:27:22.832Z,7.00
2023-04-10T08:31:28.291Z,5.85
2023-04-10T08:35:32.795Z,6.05
2023-04-10T08:39:36.699Z,9.65
2023-04-10T08:43:40.391Z,6.43
2023-04-10T08:47:45.776Z,6.80
2023-04-10T08:51:58.979Z,5.20
2023-04-10T08:56:05.963Z,8.18
2023-04-10T09:04:20.019Z,5.00
2023-04-10T09:08:24.980Z,7.25
2023-04-10T09:12:28.623Z,5.20
2023-04-10T09:16:32.045Z,5.93
2023-04-10T09:20:35.122Z,6.03
2023-04-10T09:24:43.906Z,7.78
2023-04-10T09:28:58.768Z,9.30
2023-04-10T09:37:12.939Z,8.10
2023-04-10T09:41:17.388Z,6.68
2023-04-10T09:45:22.770Z,6.65
2023-04-10T09:49:26.159Z,8.63
2023-04-10T09:53:29.831Z,5.85
2023-04-10T09:57:36.216Z,7.63
2023-04-10T10:01:41.422Z,6.35
2023-04-10T10:05:46.271Z,6.00
2023-04-10T10:09:51.154Z,6.68
2023-04-10T10:13:57.358Z,5.35
2023-04-10T10:18:09.404Z,5.75
2023-04-10T10:22:13.079Z,6.30
2023-04-10T10:26:16.588Z,5.55
2023-04-10T10:30:29.973Z,5.05
2023-04-10T10:34:34.060Z,5.65
2023-04-10T10:38:42.209Z,6.63
2023-04-10T10:42:54.277Z,6.35
2023-04-10T10:47:09.829Z,7.20
2023-04-10T10:51:12.865Z,7.15
2023-04-10T10:55:40.131Z,5.20
2023-04-10T10:59:58.805Z,5.20
2023-04-10T11:04:27.712Z,4.78
2023-04-10T11:08:46.325Z,4.55
2023-04-10T11:13:24.945Z,5.75
2023-04-10T11:17:50.884Z,5.72
2023-04-10T11:22:09.312Z,4.35
2023-04-10T11:26:12.326Z,6.35
2023-04-10T11:30:34.280Z,5.60
2023-04-10T11:34:46.147Z,9.18
2023-04-10T11:38:57.783Z,8.20
2023-04-10T11:43:14.199Z,5.13
2023-04-10T11:47:19.113Z,5.30
2023-04-10T11:51:24.157Z,4.82
2023-04-10T11:55:39.630Z,4.93
2023-04-10T11:59:51.263Z,4.38
2023-04-10T12:04:00.644Z,5.30
2023-04-10T12:08:04.945Z,6.70
2023-04-10T12:12:10.255Z,4.38
2023-04-10T12:16:13.770Z,6.03
2023-04-10T12:20:17.794Z,6.47
2023-04-10T12:24:45.998Z,5.60
2023-04-10T12:28:54.982Z,5.53
2023-04-10T12:33:04.083Z,5.57
2023-04-10T12:37:07.685Z,4.50
2023-04-10T12:41:14.056Z,5.55
2023-04-10T12:45:18.350Z,7.03
2023-04-10T12:49:21.310Z,4.00
2023-04-10T12:53:24.345Z,5.75
2023-04-10T12:57:28.675Z,5.35
2023-04-10T13:01:38.312Z,5.05
2023-04-10T13:05:42.093Z,7.60
2023-04-10T13:09:45.155Z,5.90
2023-04-10T13:13:48.746Z,6.47
2023-04-10T13:17:53.011Z,6.70
2023-04-10T13:21:58.577Z,4.97
2023-04-10T13:26:01.666Z,5.60
2023-04-10T13:30:04.627Z,6.22
2023-04-10T13:34:08.895Z,4.75
2023-04-10T13:38:12.099Z,5.22
2023-04-10T13:42:15.646Z,5.78
2023-04-10T13:46:18.919Z,4.70
2023-04-10T13:50:25.807Z,7.18
2023-04-10T13:54:29.302Z,6.65
2023-04-10T13:58:34.484Z,5.40
2023-04-10T14:02:37.957Z,7.25
2023-04-10T14:06:42.477Z,4.03
2023-04-10T14:10:46.398Z,6.00
2023-04-10T14:14:49.484Z,3.88
2023-04-10T14:18:54.372Z,5.10
2023-04-10T14:23:03.746Z,6.75
2023-04-10T14:27:13.901Z,4.50
2023-04-10T14:31:17.450Z,6.50
2023-04-10T14:35:20.711Z,5.25
2023-04-10T14:39:30.883Z,4.28
2023-04-10T14:43:34.785Z,4.88
2023-04-10T14:47:42.054Z,6.43
2023-04-10T14:51:46.118Z,4.20
2023-04-10T14:55:53.426Z,7.25
2023-04-10T14:59:56.671Z,4.18
2023-04-10T15:04:00.740Z,5.78
2023-04-10T15:08:03.914Z,3.90
2023-04-10T15:12:09.365Z,5.03
2023-04-10T15:16:15.424Z,7.10
2023-04-10T15:20:20.668Z,6.25
2023-04-10T15:24:23.497Z,6.97
2023-04-10T15:28:29.952Z,6.15
2023-04-10T15:32:33.411Z,9.85
2023-04-10T15:36:36.959Z,7.10
2023-04-10T15:40:40.468Z,7.65
2023-04-10T15:44:49.112Z,10.73
2023-04-10T15:48:52.731Z,10.00
2023-04-10T15:52:55.859Z,9.63
2023-04-10T15:57:02.051Z,9.18
2023-04-10T16:01:09.092Z,10.63
2023-04-10T16:05:12.377Z,10.90
2023-04-10T16:09:25.262Z,12.02
2023-04-10T16:13:29.854Z,14.13
2023-04-10T16:17:34.427Z,14.63
2023-04-10T16:21:39.877Z,9.48
2023-04-10T16:25:45.607Z,11.43
2023-04-10T16:29:51.537Z,10.98
2023-04-10T16:33:56.762Z,10.18
2023-04-10T16:37:59.884Z,10.48
2023-04-10T16:42:06.621Z,14.43
2023-04-10T16:46:09.663Z,14.43
2023-04-10T16:50:15.115Z,16.48
2023-04-10T16:54:18.548Z,13.93
2023-04-10T16:58:22.374Z,15.95
2023-04-10T17:02:25.917Z,12.98
2023-04-10T17:06:31.562Z,13.85
2023-04-10T17:10:34.243Z,18.45
2023-04-10T17:14:37.884Z,14.77
2023-04-10T17:18:42.371Z,11.73
2023-04-10T17:22:49.174Z,103.20
2023-04-10T17:26:51.941Z,14.90
2023-04-10T17:30:55.181Z,21.13
2023-04-10T17:34:58.602Z,21.90
2023-04-10T17:39:03.396Z,27.20
2023-04-10T17:43:06.843Z,58.75
2023-04-10T17:47:10.117Z,19.40
2023-04-10T17:51:14.893Z,19.25
2023-04-10T17:55:21.342Z,23.00
2023-04-10T17:59:27.401Z,81.82
2023-04-10T18:03:30.813Z,38.55
2023-04-10T18:07:34.529Z,27.60
2023-04-10T18:11:40.249Z,28.15
2023-04-10T18:15:43.755Z,25.65
2023-04-10T18:19:47.598Z,26.50
2023-04-10T18:23:50.681Z,197.48
2023-04-10T18:32:09.012Z,24.75
2023-04-10T18:36:14.276Z,30.75
2023-04-10T18:40:19.034Z,29.55
2023-04-10T18:44:23.554Z,36.20
2023-04-10T18:48:26.803Z,29.40
2023-04-10T18:52:30.023Z,38.03
2023-04-10T19:00:40.581Z,34.30
2023-04-10T19:04:44.024Z,36.58
2023-04-10T19:08:48.079Z,34.50
2023-04-10T19:12:53.559Z,84.55
2023-04-10T19:16:58.910Z,45.15
2023-04-10T19:21:02.800Z,47.10
2023-04-10T19:25:07.003Z,127.07
2023-04-10T19:29:14.988Z,55.50
2023-04-10T19:33:22.854Z,36.67
2023-04-10T19:37:30.075Z,32.80
2023-04-10T19:41:34.447Z,30.98
2023-04-10T19:45:38.159Z,35.55
2023-04-10T19:49:48.494Z,35.83
2023-04-10T19:53:51.729Z,35.35
2023-04-10T19:57:54.898Z,35.72
2023-04-10T20:01:58.215Z,35.47
2023-04-10T20:06:04.521Z,34.15
2023-04-10T20:10:11.013Z,39.53
2023-04-10T20:14:14.271Z,46.65
2023-04-10T20:18:18.027Z,45.33
2023-04-10T20:22:22.851Z,69.88
2023-04-10T20:26:26.584Z,45.47
2023-04-10T20:30:32.240Z,43.97
2023-04-10T20:34:34.666Z,40.75
2023-04-10T20:38:39.203Z,39.78
2023-04-10T20:42:47.627Z,46.88
2023-04-10T20:46:51.556Z,43.17
2023-04-10T20:50:57.368Z,42.28
2023-04-10T20:55:05.952Z,41.40
2023-04-10T20:59:08.926Z,41.97
2023-04-10T21:03:11.878Z,47.20
2023-04-10T21:07:17.488Z,42.05
2023-04-10T21:11:22.291Z,38.95
2023-04-10T21:15:25.538Z,44.95
2023-04-10T21:19:30.184Z,59.83
2023-04-10T21:23:33.337Z,47.33
2023-04-10T21:27:42.901Z,53.10
2023-04-10T21:31:50.467Z,34.80
2023-04-10T21:35:55.972Z,58.45
2023-04-10T21:40:01.808Z,61.88
2023-04-10T21:44:07.647Z,69.05
2023-04-10T21:48:10.586Z,90.22
2023-04-10T21:52:13.743Z,49.63
2023-04-10T21:56:18.322Z,46.78
2023-04-10T22:00:23.171Z,81.75
2023-04-10T22:04:28.118Z,52.33
2023-04-10T22:08:31.115Z,50.10
2023-04-10T22:12:34.024Z,59.00
2023-04-10T22:16:42.902Z,58.05
2023-04-10T22:20:48.644Z,66.20
2023-04-10T22:24:54.610Z,59.08
2023-04-10T22:28:59.333Z,63.63
2023-04-10T22:33:04.089Z,75.63
2023-04-10T22:37:08.508Z,69.30
2023-04-10T22:41:14.616Z,48.88
2023-04-10T22:45:17.697Z,62.50
2023-04-10T22:49:22.104Z,58.05
2023-04-10T22:53:24.725Z,61.17
2023-04-10T22:57:27.561Z,55.38
2023-04-10T23:01:30.940Z,50.55
2023-04-10T23:05:47.624Z,57.90
2023-04-10T23:09:59.831Z,74.38
2023-04-10T23:14:03.102Z,61.88
2023-04-10T23:18:06.255Z,81.00
2023-04-10T23:22:10.946Z,60.30
2023-04-10T23:26:14.074Z,67.95
2023-04-10T23:30:17.818Z,58.17
2023-04-10T23:35:01.727Z,81.25
2023-04-10T23:39:23.418Z,79.88
2023-04-10T23:43:26.730Z,48.10
2023-04-10T23:47:29.465Z,55.50
2023-04-10T23:51:33.092Z,96.38
2023-04-10T23:59:40.101Z,33.47
